createdAt,value
2023-04-19T00:00:49.610Z,18.20
2023-04-19T00:03:17.344Z,18.20
2023-04-19T00:05:44.615Z,18.19
2023-04-19T00:08:11.138Z,18.18
2023-04-19T00:10:39.845Z,18.18
2023-04-19T00:13:06.519Z,18.17
2023-04-19T00:15:35.016Z,18.18
2023-04-19T00:18:01.689Z,18.16
2023-04-19T00:20:28.219Z,18.15
2023-04-19T00:22:54.789Z,18.15
2023-04-19T00:25:21.303Z,18.14
2023-04-19T00:27:47.875Z,18.15
2023-04-19T00:30:14.557Z,18.13
2023-04-19T00:32:41.181Z,18.12
2023-04-19T00:35:08.054Z,18.11
2023-04-19T00:37:34.642Z,18.11
2023-04-19T00:40:01.172Z,18.10
2023-04-19T00:42:27.728Z,18.10
2023-04-19T00:44:54.271Z,18.09
2023-04-19T00:47:20.844Z,18.09
2023-04-19T00:49:47.426Z,18.08
2023-04-19T00:52:14.220Z,18.08
2023-04-19T00:54:43.379Z,18.07
2023-04-19T00:57:10.061Z,18.06
2023-04-19T00:59:36.859Z,18.07
2023-04-19T01:02:03.508Z,18.06
2023-04-19T01:04:30.325Z,18.05
2023-04-19T01:06:57.421Z,18.05
2023-04-19T01:09:23.952Z,18.03
2023-04-19T01:11:51.001Z,18.02
2023-04-19T01:14:17.706Z,18.02
2023-04-19T01:16:45.502Z,18.00
2023-04-19T01:19:12.441Z,18.00
2023-04-19T01:21:40.099Z,17.99
2023-04-19T01:24:07.107Z,17.98
2023-04-19T01:26:33.642Z,17.98
2023-04-19T01:29:00.218Z,17.97
2023-04-19T01:31:26.893Z,17.96
2023-04-19T01:33:53.398Z,17.95
2023-04-19T01:36:19.902Z,17.94
2023-04-19T01:38:47.768Z,17.94
2023-04-19T01:41:14.454Z,17.92
2023-04-19T01:43:40.952Z,17.92
2023-04-19T01:46:07.505Z,17.91
2023-04-19T01:48:34.035Z,17.95
2023-04-19T01:51:00.634Z,18.02
2023-04-19T01:53:27.178Z,18.10
2023-04-19T01:55:53.688Z,18.17
2023-04-19T01:58:20.509Z,18.25
2023-04-19T02:00:47.158Z,18.34
2023-04-19T02:03:13.979Z,18.40
2023-04-19T02:05:40.775Z,18.44
2023-04-19T02:08:07.298Z,18.47
2023-04-19T02:10:33.815Z,18.51
2023-04-19T02:13:00.363Z,18.54
2023-04-19T02:15:26.904Z,18.55
2023-04-19T02:17:53.514Z,18.57
2023-04-19T02:20:20.180Z,18.58
2023-04-19T02:22:47.867Z,18.60
2023-04-19T02:25:15.603Z,18.62
2023-04-19T02:27:42.126Z,18.63
2023-04-19T02:30:09.602Z,18.62
2023-04-19T02:32:36.516Z,18.62
2023-04-19T02:35:03.102Z,18.63
2023-04-19T02:37:29.601Z,18.64
2023-04-19T02:39:56.106Z,18.65
2023-04-19T02:42:22.573Z,18.64
2023-04-19T02:44:49.066Z,18.63
2023-04-19T02:47:15.750Z,18.61
2023-04-19T02:49:42.687Z,18.59
2023-04-19T02:52:09.329Z,18.57
2023-04-19T02:54:35.942Z,18.54
2023-04-19T02:57:02.669Z,18.52
2023-04-19T02:59:29.192Z,18.47
2023-04-19T03:01:55.823Z,18.42
2023-04-19T03:04:22.656Z,18.36
2023-04-19T03:06:49.208Z,18.31
2023-04-19T03:09:15.810Z,18.25
2023-04-19T03:11:42.936Z,18.22
2023-04-19T03:14:09.458Z,18.16
2023-04-19T03:16:36.643Z,18.11
2023-04-19T03:19:03.326Z,18.06
2023-04-19T03:21:29.900Z,18.03
2023-04-19T03:23:56.399Z,17.98
2023-04-19T03:26:23.007Z,17.94
2023-04-19T03:28:49.558Z,17.91
2023-04-19T03:31:16.466Z,17.89
2023-04-19T03:33:43.051Z,17.88
2023-04-19T03:36:09.628Z,17.86
2023-04-19T03:38:37.258Z,17.84
2023-04-19T03:41:03.775Z,17.84
2023-04-19T03:43:30.365Z,17.84
2023-04-19T03:45:56.924Z,17.83
2023-04-19T03:48:23.471Z,17.83
2023-04-19T03:50:49.992Z,17.85
2023-04-19T03:53:18.848Z,17.85
2023-04-19T03:55:45.894Z,17.86
2023-04-19T03:58:12.386Z,17.88
2023-04-19T04:00:38.889Z,17.89
2023-04-19T04:03:05.548Z,17.89
2023-04-19T04:05:32.299Z,17.88
2023-04-19T04:07:58.938Z,17.88
2023-04-19T04:10:25.537Z,17.90
2023-04-19T04:12:52.070Z,17.89
2023-04-19T04:15:18.627Z,17.89
2023-04-19T04:17:45.212Z,17.88
2023-04-19T04:20:13.435Z,17.88
2023-04-19T04:22:43.742Z,17.88
2023-04-19T04:25:10.275Z,17.87
2023-04-19T04:27:37.514Z,17.87
2023-04-19T04:30:04.843Z,17.87
2023-04-19T04:32:35.909Z,17.86
2023-04-19T04:35:03.790Z,17.83
2023-04-19T04:37:33.983Z,17.83
2023-04-19T04:40:01.646Z,17.80
2023-04-19T04:42:31.391Z,17.83
2023-04-19T04:44:58.026Z,17.90
2023-04-19T04:47:24.841Z,18.00
2023-04-19T04:49:52.644Z,18.09
2023-04-19T04:52:19.206Z,18.17
2023-04-19T04:54:45.715Z,18.26
2023-04-19T04:57:12.222Z,18.32
2023-04-19T04:59:38.795Z,18.38
2023-04-19T05:02:05.418Z,18.42
2023-04-19T05:04:32.097Z,18.46
2023-04-19T05:06:58.689Z,18.49
2023-04-19T05:09:25.256Z,18.52
2023-04-19T05:11:51.852Z,18.55
2023-04-19T05:14:18.400Z,18.57
2023-04-19T05:16:44.956Z,18.59
2023-04-19T05:19:11.553Z,18.63
2023-04-19T05:21:38.204Z,18.66
2023-04-19T05:24:05.246Z,18.67
2023-04-19T05:26:32.189Z,18.70
2023-04-19T05:28:58.994Z,18.72
2023-04-19T05:31:25.604Z,18.73
2023-04-19T05:33:52.177Z,18.76
2023-04-19T05:36:18.689Z,18.77
2023-04-19T05:38:45.787Z,18.78
2023-04-19T05:41:12.310Z,18.80
2023-04-19T05:43:38.862Z,18.81
2023-04-19T05:46:05.432Z,18.81
2023-04-19T05:48:31.934Z,18.81
2023-04-19T05:50:59.602Z,18.82
2023-04-19T05:53:26.143Z,18.82
2023-04-19T05:55:52.763Z,18.84
2023-04-19T05:58:19.492Z,18.84
2023-04-19T06:00:46.690Z,18.85
2023-04-19T06:03:13.521Z,18.88
2023-04-19T06:05:41.040Z,18.88
2023-04-19T06:08:09.400Z,18.91
2023-04-19T06:10:51.880Z,18.90
2023-04-19T06:13:22.837Z,18.90
2023-04-19T06:15:49.849Z,18.87
2023-04-19T06:18:19.344Z,18.86
2023-04-19T06:20:46.848Z,18.86
2023-04-19T06:23:15.482Z,18.87
2023-04-19T06:25:42.157Z,18.89
2023-04-19T06:28:08.769Z,18.90
2023-04-19T06:30:35.631Z,18.93
2023-04-19T06:33:02.266Z,18.94
2023-04-19T06:35:28.843Z,18.96
2023-04-19T06:37:55.329Z,18.98
2023-04-19T06:40:21.923Z,19.01
2023-04-19T06:42:48.548Z,19.02
2023-04-19T06:45:16.115Z,19.04
2023-04-19T06:47:42.763Z,19.05
2023-04-19T06:50:10.819Z,19.07
2023-04-19T06:52:38.855Z,19.09
2023-04-19T06:55:09.680Z,19.09
2023-04-19T06:57:36.228Z,19.11
2023-04-19T07:00:04.257Z,19.11
2023-04-19T07:02:30.871Z,19.13
2023-04-19T07:04:57.430Z,19.12
2023-04-19T07:07:23.955Z,19.13
2023-04-19T07:09:50.789Z,19.13
2023-04-19T07:12:17.278Z,19.13
2023-04-19T07:14:43.798Z,19.14
2023-04-19T07:17:10.423Z,19.14
2023-04-19T07:19:37.012Z,19.12
2023-04-19T07:22:03.670Z,19.11
2023-04-19T07:24:30.427Z,19.11
2023-04-19T07:26:57.545Z,19.12
2023-04-19T07:29:24.034Z,19.12
2023-04-19T07:31:50.626Z,19.12
2023-04-19T07:34:17.793Z,19.12
2023-04-19T07:36:44.605Z,19.11
2023-04-19T07:39:11.310Z,19.10
2023-04-19T07:41:38.002Z,19.09
2023-04-19T07:44:04.630Z,19.08
2023-04-19T07:46:31.175Z,19.07
2023-04-19T07:48:57.694Z,19.04
2023-04-19T07:51:25.127Z,19.02
2023-04-19T07:53:51.705Z,19.02
2023-04-19T07:56:19.928Z,19.02
2023-04-19T07:58:50.926Z,19.02
2023-04-19T08:01:23.543Z,19.02
2023-04-19T08:03:50.327Z,18.99
2023-04-19T08:06:17.991Z,18.98
2023-04-19T08:08:44.761Z,18.98
2023-04-19T08:11:11.386Z,18.98
2023-04-19T08:13:39.914Z,18.97
2023-04-19T08:18:36.529Z,18.97
2023-04-19T08:21:03.415Z,18.98
2023-04-19T08:23:41.212Z,18.97
2023-04-19T08:26:14.196Z,18.99
2023-04-19T08:28:40.783Z,18.98
2023-04-19T08:31:07.676Z,18.99
2023-04-19T08:33:34.299Z,19.02
2023-04-19T08:36:00.863Z,19.02
2023-04-19T08:38:27.386Z,19.04
2023-04-19T08:40:57.779Z,19.07
2023-04-19T08:43:25.836Z,19.09
2023-04-19T08:45:53.921Z,19.11
2023-04-19T08:48:21.939Z,19.14
2023-04-19T08:51:04.387Z,19.17
2023-04-19T08:53:35.543Z,19.19
2023-04-19T08:58:46.643Z,19.23
2023-04-19T09:01:33.960Z,19.27
2023-04-19T09:04:21.483Z,19.29
2023-04-19T09:06:55.153Z,19.32
2023-04-19T09:09:35.458Z,19.34
2023-04-19T09:12:03.696Z,19.37
2023-04-19T09:14:30.543Z,19.39
2023-04-19T09:17:16.622Z,19.44
2023-04-19T09:19:48.104Z,19.45
2023-04-19T09:22:14.998Z,19.49
2023-04-19T09:27:12.308Z,19.55
2023-04-19T09:29:39.091Z,19.60
2023-04-19T09:32:06.290Z,19.62
2023-04-19T09:34:32.912Z,19.67
2023-04-19T09:37:17.744Z,19.71
2023-04-19T09:39:59.316Z,19.79
2023-04-19T09:43:05.288Z,19.84
2023-04-19T09:45:44.985Z,19.91
2023-04-19T09:48:13.024Z,19.98
2023-04-19T09:51:00.175Z,20.03
2023-04-19T09:53:33.966Z,20.10
2023-04-19T09:56:03.013Z,20.15
2023-04-19T09:58:42.587Z,20.20
2023-04-19T10:01:18.947Z,20.26
2023-04-19T10:03:49.077Z,20.32
2023-04-19T10:06:33.198Z,20.37
2023-04-19T10:09:05.283Z,20.42
2023-04-19T10:11:39.094Z,20.48
2023-04-19T10:14:08.469Z,20.53
2023-04-19T10:16:37.024Z,20.58
2023-04-19T10:19:10.277Z,20.62
2023-04-19T10:21:38.165Z,20.67
2023-04-19T10:24:05.738Z,20.71
2023-04-19T10:27:14.013Z,20.75
2023-04-19T10:30:10.503Z,20.80
2023-04-19T10:32:42.673Z,20.85
2023-04-19T10:35:12.308Z,20.88
2023-04-19T10:37:41.734Z,20.92
2023-04-19T10:40:08.814Z,20.97
2023-04-19T10:43:14.720Z,20.99
2023-04-19T10:45:41.295Z,21.04
2023-04-19T10:48:33.013Z,21.06
2023-04-19T10:51:21.397Z,21.11
2023-04-19T10:53:48.205Z,21.14
2023-04-19T10:56:16.429Z,21.16
2023-04-19T10:59:01.293Z,21.20
2023-04-19T11:01:43.380Z,21.24
2023-04-19T11:04:37.533Z,21.30
2023-04-19T11:07:07.878Z,21.33
2023-04-19T11:09:39.525Z,21.36
2023-04-19T11:12:09.068Z,21.39
2023-04-19T11:14:39.601Z,21.41
2023-04-19T11:17:17.889Z,21.44
2023-04-19T11:20:09.847Z,21.47
2023-04-19T11:22:41.280Z,21.51
2023-04-19T11:25:12.317Z,21.53
2023-04-19T11:27:41.186Z,21.57
2023-04-19T11:30:10.320Z,21.60
2023-04-19T11:32:37.927Z,21.63
2023-04-19T11:35:07.874Z,21.65
2023-04-19T11:37:39.216Z,21.68
2023-04-19T11:40:06.812Z,21.72
2023-04-19T11:42:33.942Z,21.74
2023-04-19T11:45:00.553Z,21.77
2023-04-19T11:47:27.512Z,21.81
2023-04-19T11:49:56.956Z,21.85
2023-04-19T11:52:26.524Z,21.89
2023-04-19T11:54:53.971Z,21.92
2023-04-19T11:57:30.986Z,21.94
2023-04-19T12:00:12.244Z,21.98
2023-04-19T12:02:44.180Z,22.01
2023-04-19T12:05:13.598Z,22.04
2023-04-19T12:07:58.485Z,22.06
2023-04-19T12:10:25.067Z,22.10
2023-04-19T12:12:51.623Z,22.11
2023-04-19T12:15:18.225Z,22.13
2023-04-19T12:17:58.308Z,22.14
2023-04-19T12:20:35.439Z,22.16
2023-04-19T12:23:02.780Z,22.18
2023-04-19T12:25:33.762Z,22.19
2023-04-19T12:28:02.741Z,22.21
2023-04-19T12:30:29.293Z,22.23
2023-04-19T12:32:56.044Z,22.24
2023-04-19T12:35:24.352Z,22.25
2023-04-19T12:37:52.290Z,22.27
2023-04-19T12:40:18.833Z,22.27
2023-04-19T12:42:45.411Z,22.26
2023-04-19T12:45:13.279Z,22.26
2023-04-19T12:47:41.115Z,22.24
2023-04-19T12:50:08.617Z,22.25
2023-04-19T12:52:36.067Z,22.24
2023-04-19T12:55:03.277Z,22.23
2023-04-19T12:57:30.226Z,22.20
2023-04-19T12:59:56.748Z,22.20
2023-04-19T13:02:23.667Z,22.18
2023-04-19T13:04:51.095Z,22.16
2023-04-19T13:07:17.922Z,22.14
2023-04-19T13:09:44.458Z,22.11
2023-04-19T13:12:11.039Z,22.09
2023-04-19T13:14:37.583Z,22.07
2023-04-19T13:17:04.060Z,22.05
2023-04-19T13:19:31.113Z,22.03
2023-04-19T13:21:57.644Z,22.01
2023-04-19T13:24:24.176Z,21.99
2023-04-19T13:26:50.847Z,21.96
2023-04-19T13:29:17.508Z,21.92
2023-04-19T13:31:44.165Z,21.89
2023-04-19T13:34:10.732Z,21.86
2023-04-19T13:36:37.717Z,21.82
2023-04-19T13:39:05.340Z,21.80
2023-04-19T13:41:33.478Z,21.78
2023-04-19T13:44:00.010Z,21.75
2023-04-19T13:46:26.574Z,21.73
2023-04-19T13:48:53.174Z,21.68
2023-04-19T13:51:19.693Z,21.68
2023-04-19T13:53:46.251Z,21.65
2023-04-19T13:56:12.847Z,21.63
2023-04-19T13:58:39.387Z,21.63
2023-04-19T14:01:06.229Z,21.60
2023-04-19T14:03:32.978Z,21.60
2023-04-19T14:05:59.647Z,21.58
2023-04-19T14:08:26.242Z,21.57
2023-04-19T14:10:52.821Z,21.56
2023-04-19T14:13:19.402Z,21.55
2023-04-19T14:15:46.639Z,21.55
2023-04-19T14:18:13.349Z,21.54
2023-04-19T14:20:39.963Z,21.53
2023-04-19T14:23:06.510Z,21.52
2023-04-19T14:25:33.093Z,21.51
2023-04-19T14:27:59.627Z,21.51
2023-04-19T14:30:26.289Z,21.50
2023-04-19T14:32:53.059Z,21.49
2023-04-19T14:35:20.065Z,21.48
2023-04-19T14:37:46.752Z,21.48
2023-04-19T14:40:13.375Z,21.48
2023-04-19T14:42:40.070Z,21.48
2023-04-19T14:45:07.332Z,21.46
2023-04-19T14:47:34.370Z,21.45
2023-04-19T14:50:00.967Z,21.44
2023-04-19T14:52:27.551Z,21.46
2023-04-19T14:54:54.465Z,21.45
2023-04-19T14:57:21.002Z,21.44
2023-04-19T14:59:47.541Z,21.44
2023-04-19T15:02:14.193Z,21.43
2023-04-19T15:04:41.877Z,21.43
2023-04-19T15:07:08.858Z,21.43
2023-04-19T15:09:35.529Z,21.43
2023-04-19T15:12:02.221Z,21.43
2023-04-19T15:14:28.761Z,21.43
2023-04-19T15:16:55.522Z,21.41
2023-04-19T15:19:22.096Z,21.31
2023-04-19T15:21:48.713Z,21.19
2023-04-19T15:24:15.364Z,21.10
2023-04-19T15:26:44.116Z,21.03
2023-04-19T15:29:10.997Z,20.98
2023-04-19T15:31:37.598Z,20.94
2023-04-19T15:34:04.554Z,20.91
2023-04-19T15:36:31.505Z,20.87
2023-04-19T15:38:59.208Z,20.84
2023-04-19T15:41:25.857Z,20.82
2023-04-19T15:43:53.355Z,20.82
2023-04-19T15:46:19.866Z,20.81
2023-04-19T15:48:48.257Z,20.80
2023-04-19T15:51:15.370Z,20.79
2023-04-19T15:53:42.562Z,20.78
2023-04-19T15:56:10.797Z,20.77
2023-04-19T15:58:37.631Z,20.77
2023-04-19T16:01:04.308Z,20.78
2023-04-19T16:03:31.101Z,20.78
2023-04-19T16:05:57.846Z,20.79
2023-04-19T16:08:24.386Z,20.77
2023-04-19T16:10:51.111Z,20.77
2023-04-19T16:13:17.776Z,20.76
2023-04-19T16:15:44.731Z,20.76
2023-04-19T16:18:12.316Z,20.74
2023-04-19T16:20:39.874Z,20.74
2023-04-19T16:23:06.667Z,20.73
2023-04-19T16:25:34.204Z,20.75
2023-04-19T16:28:01.250Z,20.74
2023-04-19T16:30:28.433Z,20.75
2023-04-19T16:32:56.128Z,20.76
2023-04-19T16:35:23.638Z,20.79
2023-04-19T16:37:50.712Z,20.80
2023-04-19T16:40:17.342Z,20.81
2023-04-19T16:42:43.977Z,20.80
2023-04-19T16:45:11.136Z,20.81
2023-04-19T16:47:37.989Z,20.80
2023-04-19T16:50:06.120Z,20.81
2023-04-19T16:52:34.932Z,20.83
2023-04-19T16:55:04.203Z,20.81
2023-04-19T16:57:31.708Z,20.83
2023-04-19T16:59:58.406Z,20.83
2023-04-19T17:02:25.175Z,20.82
2023-04-19T17:04:52.078Z,20.83
2023-04-19T17:07:18.739Z,20.83
2023-04-19T17:09:46.196Z,20.82
2023-04-19T17:12:12.737Z,20.83
2023-04-19T17:14:39.451Z,20.84
2023-04-19T17:17:06.261Z,20.85
2023-04-19T17:19:32.813Z,20.87
2023-04-19T17:22:05.001Z,20.89
2023-04-19T17:24:32.900Z,20.92
2023-04-19T17:27:00.336Z,20.94
2023-04-19T17:29:27.407Z,20.97
2023-04-19T17:31:54.199Z,20.98
2023-04-19T17:34:20.844Z,21.00
2023-04-19T17:36:47.369Z,21.02
2023-04-19T17:39:14.201Z,21.03
2023-04-19T17:41:41.299Z,21.04
2023-04-19T17:44:07.838Z,21.05
2023-04-19T17:46:34.454Z,21.06
2023-04-19T17:49:01.325Z,21.07
2023-04-19T17:51:27.898Z,21.09
2023-04-19T17:53:54.421Z,21.08
2023-04-19T17:56:21.380Z,21.09
2023-04-19T17:58:47.936Z,21.09
2023-04-19T18:01:16.293Z,21.08
2023-04-19T18:03:43.084Z,21.07
2023-04-19T18:06:10.648Z,21.06
2023-04-19T18:08:37.338Z,21.06
2023-04-19T18:11:03.897Z,21.05
2023-04-19T18:13:30.459Z,21.03
2023-04-19T18:15:57.153Z,21.02
2023-04-19T18:18:23.755Z,21.01
2023-04-19T18:20:50.359Z,21.00
2023-04-19T18:23:16.907Z,20.98
2023-04-19T18:25:43.484Z,20.98
2023-04-19T18:28:10.641Z,20.97
2023-04-19T18:30:37.273Z,20.96
2023-04-19T18:33:04.005Z,20.94
2023-04-19T18:35:30.783Z,20.93
2023-04-19T18:37:57.776Z,20.92
2023-04-19T18:40:24.347Z,20.91
2023-04-19T18:42:50.887Z,20.90
2023-04-19T18:45:17.811Z,20.89
2023-04-19T18:47:44.436Z,20.87
2023-04-19T18:50:11.951Z,20.86
2023-04-19T18:52:38.496Z,20.85
2023-04-19T18:55:06.298Z,20.84
2023-04-19T18:57:34.944Z,20.83
2023-04-19T19:00:02.697Z,20.83
2023-04-19T19:02:29.619Z,20.80
2023-04-19T19:05:01.191Z,20.79
2023-04-19T19:10:01.593Z,20.76
2023-04-19T19:12:30.631Z,20.75
2023-04-19T19:14:57.185Z,20.73
2023-04-19T19:17:27.923Z,20.71
2023-04-19T19:19:54.937Z,20.69
2023-04-19T19:22:27.779Z,20.69
2023-04-19T19:24:54.975Z,20.65
2023-04-19T19:27:21.655Z,20.68
2023-04-19T19:29:48.249Z,20.67
2023-04-19T19:32:14.795Z,20.69
2023-04-19T19:34:53.848Z,20.69
2023-04-19T19:37:22.780Z,20.71
2023-04-19T19:39:49.705Z,20.70
2023-04-19T19:42:17.219Z,20.70
2023-04-19T19:44:44.153Z,20.72
2023-04-19T19:47:11.080Z,20.71
2023-04-19T19:52:07.909Z,20.70
2023-04-19T19:54:34.504Z,20.70
2023-04-19T19:59:34.474Z,20.72
2023-04-19T20:02:02.368Z,20.71
2023-04-19T20:04:29.381Z,20.70
2023-04-19T20:09:27.663Z,20.67
2023-04-19T20:11:54.501Z,20.65
2023-04-19T20:14:23.754Z,20.64
2023-04-19T20:16:50.793Z,20.62
2023-04-19T20:19:18.289Z,20.59
2023-04-19T20:21:46.943Z,20.59
2023-04-19T20:24:13.721Z,20.56
2023-04-19T20:26:40.291Z,20.54
2023-04-19T20:29:06.995Z,20.51
2023-04-19T20:31:33.589Z,20.49
2023-04-19T20:34:00.216Z,20.45
2023-04-19T20:36:27.879Z,20.41
2023-04-19T20:38:56.807Z,20.39
2023-04-19T20:41:23.331Z,20.35
2023-04-19T20:43:50.052Z,20.32
2023-04-19T20:46:16.818Z,20.29
2023-04-19T20:48:43.431Z,20.25
2023-04-19T20:51:10.151Z,20.19
2023-04-19T20:53:36.707Z,20.17
2023-04-19T20:56:03.246Z,20.13
2023-04-19T20:58:32.154Z,20.10
2023-04-19T21:00:59.174Z,20.07
2023-04-19T21:03:26.161Z,20.04
2023-04-19T21:05:52.911Z,20.02
2023-04-19T21:08:19.478Z,20.00
2023-04-19T21:10:46.061Z,19.96
2023-04-19T21:13:12.536Z,19.93
2023-04-19T21:15:39.113Z,19.90
2023-04-19T21:18:05.744Z,19.88
2023-04-19T21:20:32.290Z,19.84
2023-04-19T21:23:00.068Z,19.81
2023-04-19T21:25:26.747Z,19.79
2023-04-19T21:27:53.284Z,19.76
2023-04-19T21:30:21.932Z,19.73
2023-04-19T21:32:49.635Z,19.71
2023-04-19T21:35:16.279Z,19.68
2023-04-19T21:37:42.843Z,19.65
2023-04-19T21:40:09.574Z,19.64
2023-04-19T21:42:36.168Z,19.61
2023-04-19T21:45:02.827Z,19.58
2023-04-19T21:47:29.337Z,19.54
2023-04-19T21:49:55.875Z,19.52
2023-04-19T21:52:22.368Z,19.48
2023-04-19T21:54:48.915Z,19.45
2023-04-19T21:57:17.491Z,19.44
2023-04-19T21:59:44.028Z,19.42
2023-04-19T22:02:10.632Z,19.40
2023-04-19T22:04:39.552Z,19.37
2023-04-19T22:07:07.640Z,19.35
2023-04-19T22:09:34.344Z,19.33
2023-04-19T22:12:01.632Z,19.32
2023-04-19T22:14:28.363Z,19.30
2023-04-19T22:16:56.397Z,19.28
2023-04-19T22:19:25.932Z,19.27
2023-04-19T22:21:53.471Z,19.25
2023-04-19T22:24:21.808Z,19.21
2023-04-19T22:26:50.069Z,19.19
2023-04-19T22:29:17.516Z,19.20
2023-04-19T22:31:44.247Z,19.17
2023-04-19T22:34:10.890Z,19.16
2023-04-19T22:36:37.370Z,19.15
2023-04-19T22:39:04.707Z,19.14
2023-04-19T22:41:33.025Z,19.11
2023-04-19T22:44:00.123Z,19.10
2023-04-19T22:46:27.290Z,19.08
2023-04-19T22:48:53.910Z,19.07
2023-04-19T22:51:20.502Z,19.05
2023-04-19T22:53:47.109Z,19.04
2023-04-19T22:56:13.738Z,19.02
2023-04-19T22:58:40.316Z,19.00
2023-04-19T23:01:06.925Z,18.98
2023-04-19T23:03:33.582Z,18.97
2023-04-19T23:06:03.468Z,18.95
2023-04-19T23:08:30.849Z,18.91
2023-04-19T23:10:57.451Z,18.90
2023-04-19T23:13:23.984Z,18.88
2023-04-19T23:15:50.557Z,18.87
2023-04-19T23:18:17.602Z,18.86
2023-04-19T23:20:44.236Z,18.83
2023-04-19T23:23:10.990Z,18.82
2023-04-19T23:25:37.511Z,18.81
2023-04-19T23:28:04.047Z,18.79
2023-04-19T23:30:31.992Z,18.77
2023-04-19T23:32:58.644Z,18.74
2023-04-19T23:35:25.326Z,18.73
2023-04-19T23:37:51.837Z,18.71
2023-04-19T23:40:18.421Z,18.70
2023-04-19T23:42:44.981Z,18.67
2023-04-19T23:45:11.574Z,18.67
2023-04-19T23:47:38.139Z,18.65
2023-04-19T23:50:04.988Z,18.65
2023-04-19T23:52:31.556Z,18.62
2023-04-19T23:54:58.089Z,18.63
2023-04-19T23:57:24.561Z,18.61
2023-04-19T23:59:51.382Z,18.61
